sensor_id;sensor_type;location;lat;lon;timestamp;pressure;altitude;pressure_sealevel;temperature;humidity
74433;BME280;62865;53.146;23.172;2022-09-09T00:03:36;1025.3;;;13.1;52.9
74433;BME280;62865;53.146;23.172;2022-09-09T00:09:02;1025.5;;;13.1;52.8
74433;BME280;62865;53.146;23.172;2022-09-09T00:13:52;1025.4;;;13.1;52.8
74433;BME280;62865;53.146;23.172;2022-09-09T00:19:12;1025.4;;;13.1;52.8
74433;BME280;62865;53.146;23.172;2022-09-09T00:23:40;1025.4;;;13;52.9
74433;BME280;62865;53.146;23.172;2022-09-09T00:28:36;1025.4;;;12.9;53.2
74433;BME280;62865;53.146;23.172;2022-09-09T00:33:23;1025.5;;;13;53.1
74433;BME280;62865;53.146;23.172;2022-09-09T00:38:33;1025.5;;;12.9;53.1
74433;BME280;62865;53.146;23.172;2022-09-09T00:54:01;1025.4;;;12.9;53.3
74433;BME280;62865;53.146;23.172;2022-09-09T00:58:55;1025.5;;;12.8;53.5
74433;BME280;62865;53.146;23.172;2022-09-09T01:03:35;1025.5;;;12.8;53.5
74433;BME280;62865;53.146;23.172;2022-09-09T01:14:01;1025.5;;;12.8;53.5
74433;BME280;62865;53.146;23.172;2022-09-09T01:18:35;1025.3;;;12.7;53.6
74433;BME280;62865;53.146;23.172;2022-09-09T01:23:38;1025.3;;;12.7;53.7
74433;BME280;62865;53.146;23.172;2022-09-09T01:28:25;1025.2;;;12.6;54
74433;BME280;62865;53.146;23.172;2022-09-09T01:33:49;1025.2;;;12.6;54
74433;BME280;62865;53.146;23.172;2022-09-09T01:38:43;1025.2;;;12.6;54
74433;BME280;62865;53.146;23.172;2022-09-09T01:43:54;1025.3;;;12.6;54
74433;BME280;62865;53.146;23.172;2022-09-09T01:48:48;1025.3;;;12.5;54.3
74433;BME280;62865;53.146;23.172;2022-09-09T01:53:38;1025.2;;;12.5;54.4
74433;BME280;62865;53.146;23.172;2022-09-09T02:03:57;1025.1;;;12.4;54.6
74433;BME280;62865;53.146;23.172;2022-09-09T02:08:54;1025;;;12.4;54.7
74433;BME280;62865;53.146;23.172;2022-09-09T02:13:37;1025;;;12.5;54.6
74433;BME280;62865;53.146;23.172;2022-09-09T02:18:34;1024.9;;;12.5;54.4
74433;BME280;62865;53.146;23.172;2022-09-09T02:24:00;1024.9;;;12.6;54.3
74433;BME280;62865;53.146;23.172;2022-09-09T02:29:01;1024.9;;;12.5;54.3
74433;BME280;62865;53.146;23.172;2022-09-09T02:33:23;1024.9;;;12.6;54.2
74433;BME280;62865;53.146;23.172;2022-09-09T02:38:57;1024.9;;;12.5;54.2
74433;BME280;62865;53.146;23.172;2022-09-09T02:43:59;1024.9;;;12.5;54.2
74433;BME280;62865;53.146;23.172;2022-09-09T02:49:09;1024.9;;;12.5;54.3
74433;BME280;62865;53.146;23.172;2022-09-09T02:53:32;1024.8;;;12.5;54.4
74433;BME280;62865;53.146;23.172;2022-09-09T02:58:41;1024.8;;;12.3;54.8
74433;BME280;62865;53.146;23.172;2022-09-09T03:03:31;1024.8;;;12.4;54.6
74433;BME280;62865;53.146;23.172;2022-09-09T03:08:21;1024.8;;;12.3;54.9
74433;BME280;62865;53.146;23.172;2022-09-09T03:13:41;1024.7;;;12.3;54.9
74433;BME280;62865;53.146;23.172;2022-09-09T03:19:00;1024.7;;;12.3;55
74433;BME280;62865;53.146;23.172;2022-09-09T03:23:47;1024.7;;;12.2;55.2
74433;BME280;62865;53.146;23.172;2022-09-09T03:28:59;1024.6;;;12.3;55.1
74433;BME280;62865;53.146;23.172;2022-09-09T03:33:41;1024.6;;;12.2;55.2
74433;BME280;62865;53.146;23.172;2022-09-09T03:38:45;1024.6;;;12.2;55.1
74433;BME280;62865;53.146;23.172;2022-09-09T03:43:59;1024.6;;;12.2;55.3
74433;BME280;62865;53.146;23.172;2022-09-09T03:48:41;1024.6;;;12.1;55.4
74433;BME280;62865;53.146;23.172;2022-09-09T03:53:22;1024.6;;;12.1;55.5
74433;BME280;62865;53.146;23.172;2022-09-09T04:03:40;1024.6;;;12.2;55.2
74433;BME280;62865;53.146;23.172;2022-09-09T04:08:47;1024.5;;;12.1;55.4
74433;BME280;62865;53.146;23.172;2022-09-09T04:13:24;1024.5;;;12.1;55.7
74433;BME280;62865;53.146;23.172;2022-09-09T04:18:51;1024.5;;;12.1;55.8
74433;BME280;62865;53.146;23.172;2022-09-09T04:23:49;1024.5;;;12;55.9
74433;BME280;62865;53.146;23.172;2022-09-09T04:28:41;1024.5;;;12;55.9
74433;BME280;62865;53.146;23.172;2022-09-09T04:33:52;1024.5;;;12;56
74433;BME280;62865;53.146;23.172;2022-09-09T04:39:03;1024.5;;;12;56
74433;BME280;62865;53.146;23.172;2022-09-09T04:43:39;1024.5;;;12.1;56.2
74433;BME280;62865;53.146;23.172;2022-09-09T04:48:31;1024.5;;;12.1;56.1
74433;BME280;62865;53.146;23.172;2022-09-09T04:54:01;1024.5;;;12.2;55.9
74433;BME280;62865;53.146;23.172;2022-09-09T04:58:53;1024.5;;;12.3;55.8
74433;BME280;62865;53.146;23.172;2022-09-09T05:04:05;1024.5;;;12.3;55.8
74433;BME280;62865;53.146;23.172;2022-09-09T05:08:43;1024.5;;;12.3;55.7
74433;BME280;62865;53.146;23.172;2022-09-09T05:13:53;1024.6;;;12.4;55.7
74433;BME280;62865;53.146;23.172;2022-09-09T05:19:07;1024.6;;;12.5;55.5
74433;BME280;62865;53.146;23.172;2022-09-09T05:23:44;1024.7;;;12.4;55.7
74433;BME280;62865;53.146;23.172;2022-09-09T05:28:43;1024.7;;;12.3;56
74433;BME280;62865;53.146;23.172;2022-09-09T05:34:01;1024.7;;;12.3;56.3
74433;BME280;62865;53.146;23.172;2022-09-09T05:38:34;1024.8;;;12.3;56.4
74433;BME280;62865;53.146;23.172;2022-09-09T05:43:23;1024.8;;;12.4;56.1
74433;BME280;62865;53.146;23.172;2022-09-09T05:48:44;1024.9;;;12.5;56.1
74433;BME280;62865;53.146;23.172;2022-09-09T05:54:05;1024.9;;;12.4;56.3
74433;BME280;62865;53.146;23.172;2022-09-09T05:59:05;1024.9;;;12.5;56.1
74433;BME280;62865;53.146;23.172;2022-09-09T06:04:05;1025;;;12.6;56
74433;BME280;62865;53.146;23.172;2022-09-09T06:09:04;1025;;;12.7;55.9
74433;BME280;62865;53.146;23.172;2022-09-09T06:14:06;1025;;;12.7;55.8
74433;BME280;62865;53.146;23.172;2022-09-09T06:19:05;1025;;;12.8;55.9
74433;BME280;62865;53.146;23.172;2022-09-09T06:23:43;1025;;;12.9;56
74433;BME280;62865;53.146;23.172;2022-09-09T06:28:23;1025;;;12.9;56.2
74433;BME280;62865;53.146;23.172;2022-09-09T06:34:06;1024.9;;;13;56.1
74433;BME280;62865;53.146;23.172;2022-09-09T06:38:53;1024.9;;;13;56
74433;BME280;62865;53.146;23.172;2022-09-09T06:43:43;1024.9;;;12.9;56.1
74433;BME280;62865;53.146;23.172;2022-09-09T06:48:55;1025;;;13;56.2
74433;BME280;62865;53.146;23.172;2022-09-09T06:53:56;1024.9;;;13.1;56.1
74433;BME280;62865;53.146;23.172;2022-09-09T06:58:44;1024.9;;;13.2;56.1
74433;BME280;62865;53.146;23.172;2022-09-09T07:03:54;1024.9;;;13.3;56.5
74433;BME280;62865;53.146;23.172;2022-09-09T07:09:06;1024.9;;;13.2;57.6
74433;BME280;62865;53.146;23.172;2022-09-09T07:13:34;1024.9;;;13.1;58.8
74433;BME280;62865;53.146;23.172;2022-09-09T07:18:33;1024.9;;;13.2;59.1
74433;BME280;62865;53.146;23.172;2022-09-09T07:24:07;1025;;;13.2;59.3
74433;BME280;62865;53.146;23.172;2022-09-09T07:28:57;1025;;;13;59.7
74433;BME280;62865;53.146;23.172;2022-09-09T07:34:09;1025;;;13;60.1
74433;BME280;62865;53.146;23.172;2022-09-09T07:38:44;1025;;;12.9;60.7
74433;BME280;62865;53.146;23.172;2022-09-09T07:43:55;1025.1;;;12.9;60.3
74433;BME280;62865;53.146;23.172;2022-09-09T07:49:08;1025;;;13.1;60.4
74433;BME280;62865;53.146;23.172;2022-09-09T07:53:44;1025.1;;;13.1;60.7
74433;BME280;62865;53.146;23.172;2022-09-09T07:58:45;1025.1;;;13.2;60.8
74433;BME280;62865;53.146;23.172;2022-09-09T08:04:03;1025.2;;;13.5;60
74433;BME280;62865;53.146;23.172;2022-09-09T08:08:34;1025.2;;;13.5;59.7
74433;BME280;62865;53.146;23.172;2022-09-09T08:13:45;1025.2;;;13.4;59.5
74433;BME280;62865;53.146;23.172;2022-09-09T08:18:34;1025.4;;;13.2;60.6
74433;BME280;62865;53.146;23.172;2022-09-09T08:24:08;1025.4;;;13.3;60.4
74433;BME280;62865;53.146;23.172;2022-09-09T08:29:06;1025.5;;;13.1;61.7
74433;BME280;62865;53.146;23.172;2022-09-09T08:33:44;1025.5;;;13.1;61.7
74433;BME280;62865;53.146;23.172;2022-09-09T08:38:42;1025.5;;;12.7;64.2
74433;BME280;62865;53.146;23.172;2022-09-09T08:49:23;1025.5;;;12.3;66.4
74433;BME280;62865;53.146;23.172;2022-09-09T08:53:38;1025.6;;;12.2;67.4
74433;BME280;62865;53.146;23.172;2022-09-09T08:58:34;1025.6;;;12.2;67.4
74433;BME280;62865;53.146;23.172;2022-09-09T09:03:55;1025.5;;;11.9;69.6
74433;BME280;62865;53.146;23.172;2022-09-09T09:09:02;1025.6;;;11.3;74.2
74433;BME280;62865;53.146;23.172;2022-09-09T09:13:57;1025.6;;;11.2;75.1
74433;BME280;62865;53.146;23.172;2022-09-09T09:18:57;1025.5;;;11.1;75.7
74433;BME280;62865;53.146;23.172;2022-09-09T09:23:56;1025.5;;;11.2;76.2
74433;BME280;62865;53.146;23.172;2022-09-09T09:28:54;1025.5;;;11.2;75.9
74433;BME280;62865;53.146;23.172;2022-09-09T09:33:57;1025.6;;;11.1;76.6
74433;BME280;62865;53.146;23.172;2022-09-09T09:39:05;1025.6;;;11.2;76.3
74433;BME280;62865;53.146;23.172;2022-09-09T09:43:34;1025.7;;;11.2;76.2
74433;BME280;62865;53.146;23.172;2022-09-09T09:48:25;1025.8;;;11.2;76.3
74433;BME280;62865;53.146;23.172;2022-09-09T09:53:32;1025.9;;;11.2;76.5
74433;BME280;62865;53.146;23.172;2022-09-09T09:59:05;1026;;;11.1;77.1
74433;BME280;62865;53.146;23.172;2022-09-09T10:04:22;1026;;;11.2;77
74433;BME280;62865;53.146;23.172;2022-09-09T10:08:44;1026.1;;;11.4;76.8
74433;BME280;62865;53.146;23.172;2022-09-09T10:14:08;1026;;;11.5;76.7
74433;BME280;62865;53.146;23.172;2022-09-09T10:19:47;1026;;;11.5;76.9
74433;BME280;62865;53.146;23.172;2022-09-09T10:23:57;1025.9;;;11.5;76.8
74433;BME280;62865;53.146;23.172;2022-09-09T10:29:17;1025.9;;;11.4;76.9
74433;BME280;62865;53.146;23.172;2022-09-09T10:34:02;1025.9;;;11.5;76.9
74433;BME280;62865;53.146;23.172;2022-09-09T10:38:39;1025.9;;;11.5;76.9
74433;BME280;62865;53.146;23.172;2022-09-09T10:43:55;1026;;;11.4;77.5
74433;BME280;62865;53.146;23.172;2022-09-09T10:49:19;1026;;;11.4;77.2
74433;BME280;62865;53.146;23.172;2022-09-09T10:54:16;1026;;;11.4;77.2
74433;BME280;62865;53.146;23.172;2022-09-09T10:58:53;1025.9;;;11.5;77.5
74433;BME280;62865;53.146;23.172;2022-09-09T11:04:00;1026;;;11.5;77.2
74433;BME280;62865;53.146;23.172;2022-09-09T11:08:57;1026;;;11.7;77.1
74433;BME280;62865;53.146;23.172;2022-09-09T11:13:57;1026.1;;;11.8;76.7
74433;BME280;62865;53.146;23.172;2022-09-09T11:23:26;1026.1;;;11.8;76.7
74433;BME280;62865;53.146;23.172;2022-09-09T11:33:39;1026.2;;;12.8;73.9
74433;BME280;62865;53.146;23.172;2022-09-09T11:39:00;1026.2;;;12.9;73.9
74433;BME280;62865;53.146;23.172;2022-09-09T11:43:45;1026.1;;;12.8;74.2
74433;BME280;62865;53.146;23.172;2022-09-09T11:48:58;1026.1;;;12.8;74.2
74433;BME280;62865;53.146;23.172;2022-09-09T11:53:54;1026.2;;;12.7;74.6
74433;BME280;62865;53.146;23.172;2022-09-09T11:58:58;1026.2;;;12.8;74.2
74433;BME280;62865;53.146;23.172;2022-09-09T12:04:11;1026.2;;;12.8;73.8
74433;BME280;62865;53.146;23.172;2022-09-09T12:09:06;1026.1;;;13;74.2
74433;BME280;62865;53.146;23.172;2022-09-09T12:13:22;1026.1;;;13;74.2
74433;BME280;62865;53.146;23.172;2022-09-09T12:18:33;1026.1;;;13.1;74
74433;BME280;62865;53.146;23.172;2022-09-09T12:23:34;1026.1;;;13;74.2
74433;BME280;62865;53.146;23.172;2022-09-09T12:29:18;1026.1;;;13;74.1
74433;BME280;62865;53.146;23.172;2022-09-09T12:33:53;1026.1;;;13.1;73.6
74433;BME280;62865;53.146;23.172;2022-09-09T12:38:40;1026.1;;;13.1;73.7
74433;BME280;62865;53.146;23.172;2022-09-09T12:44:06;1026.2;;;13.3;72.9
74433;BME280;62865;53.146;23.172;2022-09-09T12:48:53;1026.1;;;13.4;72.3
74433;BME280;62865;53.146;23.172;2022-09-09T12:53:41;1026.1;;;13.4;71.8
74433;BME280;62865;53.146;23.172;2022-09-09T12:58:44;1026.1;;;13.5;71.4
74433;BME280;62865;53.146;23.172;2022-09-09T13:03:42;1026.1;;;13.4;71.3
74433;BME280;62865;53.146;23.172;2022-09-09T13:08:21;1026.2;;;13.5;70.9
74433;BME280;62865;53.146;23.172;2022-09-09T13:13:24;1026.1;;;13.4;71.4
74433;BME280;62865;53.146;23.172;2022-09-09T13:18:43;1026.2;;;13.5;71.6
74433;BME280;62865;53.146;23.172;2022-09-09T13:23:49;1026.2;;;13.6;71.2
74433;BME280;62865;53.146;23.172;2022-09-09T13:29:14;1026.2;;;13.6;71.2
74433;BME280;62865;53.146;23.172;2022-09-09T13:38:56;1026.3;;;13.5;71.3
74433;BME280;62865;53.146;23.172;2022-09-09T13:44:24;1026.2;;;13.4;71.2
74433;BME280;62865;53.146;23.172;2022-09-09T13:54:04;1026.3;;;13.3;72.3
74433;BME280;62865;53.146;23.172;2022-09-09T13:58:45;1026.3;;;13.1;72.8
74433;BME280;62865;53.146;23.172;2022-09-09T14:04:04;1026.3;;;13.2;72.8
74433;BME280;62865;53.146;23.172;2022-09-09T14:09:12;1026.2;;;13.1;73.3
74433;BME280;62865;53.146;23.172;2022-09-09T14:18:48;1026.3;;;12.8;74.8
74433;BME280;62865;53.146;23.172;2022-09-09T14:23:58;1026.2;;;12.8;75
74433;BME280;62865;53.146;23.172;2022-09-09T14:28:52;1026.2;;;12.8;75.2
74433;BME280;62865;53.146;23.172;2022-09-09T14:33:23;1026.3;;;12.9;74.9
74433;BME280;62865;53.146;23.172;2022-09-09T14:38:56;1026.4;;;12.9;74.6
74433;BME280;62865;53.146;23.172;2022-09-09T14:44:06;1026.4;;;13;74.9
74433;BME280;62865;53.146;23.172;2022-09-09T14:48:34;1026.3;;;13;74.2
74433;BME280;62865;53.146;23.172;2022-09-09T14:53:34;1026.3;;;13;73.7
74433;BME280;62865;53.146;23.172;2022-09-09T14:59:06;1026.3;;;13;73.3
74433;BME280;62865;53.146;23.172;2022-09-09T15:03:42;1026.3;;;13.1;73.2
74433;BME280;62865;53.146;23.172;2022-09-09T15:09:04;1026.3;;;13.2;72.3
74433;BME280;62865;53.146;23.172;2022-09-09T15:13:40;1026.4;;;13.3;71.5
74433;BME280;62865;53.146;23.172;2022-09-09T15:18:56;1026.4;;;13.3;70.9
74433;BME280;62865;53.146;23.172;2022-09-09T15:24:06;1026.4;;;13.2;71.8
74433;BME280;62865;53.146;23.172;2022-09-09T15:28:44;1026.4;;;13.4;71.4
74433;BME280;62865;53.146;23.172;2022-09-09T15:33:47;1026.4;;;13.5;71.8
74433;BME280;62865;53.146;23.172;2022-09-09T15:38:24;1026.6;;;13.7;71.3
74433;BME280;62865;53.146;23.172;2022-09-09T15:43:43;1026.6;;;13.7;71
74433;BME280;62865;53.146;23.172;2022-09-09T15:48:48;1026.7;;;13.7;71.2
74433;BME280;62865;53.146;23.172;2022-09-09T15:53:34;1026.6;;;13.6;71.9
74433;BME280;62865;53.146;23.172;2022-09-09T15:59:10;1026.6;;;13.6;71.9
74433;BME280;62865;53.146;23.172;2022-09-09T16:04:10;1026.4;;;13.8;71.4
74433;BME280;62865;53.146;23.172;2022-09-09T16:08:42;1026.4;;;13.7;71.4
74433;BME280;62865;53.146;23.172;2022-09-09T16:14:08;1026.4;;;13.6;71.2
74433;BME280;62865;53.146;23.172;2022-09-09T16:19:10;1026.4;;;13.6;70.9
74433;BME280;62865;53.146;23.172;2022-09-09T16:24:09;1026.4;;;13.5;70.7
74433;BME280;62865;53.146;23.172;2022-09-09T16:28:24;1026.5;;;13.4;70.9
74433;BME280;62865;53.146;23.172;2022-09-09T16:33:24;1026.5;;;13.4;71
74433;BME280;62865;53.146;23.172;2022-09-09T16:39:09;1026.6;;;13.4;71
74433;BME280;62865;53.146;23.172;2022-09-09T16:44:00;1026.5;;;13.4;70.9
74433;BME280;62865;53.146;23.172;2022-09-09T16:48:32;1026.5;;;13.5;70.1
74433;BME280;62865;53.146;23.172;2022-09-09T16:53:24;1026.5;;;13.5;70.1
74433;BME280;62865;53.146;23.172;2022-09-09T16:58:53;1026.6;;;13.6;68.6
74433;BME280;62865;53.146;23.172;2022-09-09T17:03:34;1026.6;;;13.6;68.1
74433;BME280;62865;53.146;23.172;2022-09-09T17:08:56;1026.6;;;13.6;67.6
74433;BME280;62865;53.146;23.172;2022-09-09T17:14:10;1026.7;;;13.4;67.6
74433;BME280;62865;53.146;23.172;2022-09-09T17:18:34;1026.7;;;13.4;67.6
74433;BME280;62865;53.146;23.172;2022-09-09T17:23:24;1026.7;;;13.4;67.5
74433;BME280;62865;53.146;23.172;2022-09-09T17:29:08;1026.7;;;13.5;67.1
74433;BME280;62865;53.146;23.172;2022-09-09T17:33:26;1026.7;;;13.4;67.3
74433;BME280;62865;53.146;23.172;2022-09-09T17:39:08;1026.7;;;13.4;67.2
74433;BME280;62865;53.146;23.172;2022-09-09T17:43:32;1026.7;;;13.5;66.6
74433;BME280;62865;53.146;23.172;2022-09-09T17:49:11;1026.8;;;13.6;65.8
74433;BME280;62865;53.146;23.172;2022-09-09T17:53:57;1026.9;;;13.6;65.3
74433;BME280;62865;53.146;23.172;2022-09-09T17:58:44;1026.9;;;13.4;64.7
74433;BME280;62865;53.146;23.172;2022-09-09T18:03:34;1026.8;;;13.3;64.9
74433;BME280;62865;53.146;23.172;2022-09-09T18:08:34;1026.8;;;13.3;64.9
74433;BME280;62865;53.146;23.172;2022-09-09T18:13:42;1026.7;;;13.4;64.2
74433;BME280;62865;53.146;23.172;2022-09-09T18:18:34;1026.8;;;13.3;64
74433;BME280;62865;53.146;23.172;2022-09-09T18:24:00;1026.8;;;13.2;64
74433;BME280;62865;53.146;23.172;2022-09-09T18:29:11;1026.7;;;13.3;63.3
74433;BME280;62865;53.146;23.172;2022-09-09T18:33:56;1026.7;;;13.3;63.1
74433;BME280;62865;53.146;23.172;2022-09-09T18:38:50;1026.8;;;13.4;62.9
74433;BME280;62865;53.146;23.172;2022-09-09T18:43:42;1026.7;;;13.4;62.6
74433;BME280;62865;53.146;23.172;2022-09-09T18:48:52;1026.7;;;13.4;62.3
74433;BME280;62865;53.146;23.172;2022-09-09T18:54:10;1026.7;;;13.4;62.4
74433;BME280;62865;53.146;23.172;2022-09-09T18:58:32;1026.8;;;13.4;62.2
74433;BME280;62865;53.146;23.172;2022-09-09T19:03:54;1026.8;;;13.4;61.9
74433;BME280;62865;53.146;23.172;2022-09-09T19:08:33;1026.8;;;13.3;61.9
74433;BME280;62865;53.146;23.172;2022-09-09T19:13:59;1026.8;;;13.3;62.1
74433;BME280;62865;53.146;23.172;2022-09-09T19:18:22;1026.7;;;13.4;61.6
74433;BME280;62865;53.146;23.172;2022-09-09T19:24:00;1026.6;;;13.3;61.4
74433;BME280;62865;53.146;23.172;2022-09-09T19:28:52;1026.6;;;13.4;61.3
74433;BME280;62865;53.146;23.172;2022-09-09T19:33:52;1026.7;;;13.4;60.8
74433;BME280;62865;53.146;23.172;2022-09-09T19:38:54;1026.7;;;13.4;60.7
74433;BME280;62865;53.146;23.172;2022-09-09T19:44:07;1026.7;;;13.4;60.8
74433;BME280;62865;53.146;23.172;2022-09-09T19:48:22;1026.6;;;13.3;60.8
74433;BME280;62865;53.146;23.172;2022-09-09T19:53:43;1026.6;;;13.3;61.1
74433;BME280;62865;53.146;23.172;2022-09-09T19:58:46;1026.4;;;13.2;61.6
74433;BME280;62865;53.146;23.172;2022-09-09T20:03:57;1026.4;;;13.3;61.5
74433;BME280;62865;53.146;23.172;2022-09-09T20:09:07;1026.4;;;13.3;61.3
74433;BME280;62865;53.146;23.172;2022-09-09T20:13:40;1026.4;;;13.4;61.2
74433;BME280;62865;53.146;23.172;2022-09-09T20:19:08;1026.4;;;13.3;61.5
74433;BME280;62865;53.146;23.172;2022-09-09T20:23:58;1026.4;;;13.3;61.5
74433;BME280;62865;53.146;23.172;2022-09-09T20:28:42;1026.5;;;13.3;61.8
74433;BME280;62865;53.146;23.172;2022-09-09T20:33:48;1026.5;;;13.3;61.9
74433;BME280;62865;53.146;23.172;2022-09-09T20:38:24;1026.5;;;13.3;61.8
74433;BME280;62865;53.146;23.172;2022-09-09T20:43:47;1026.5;;;13.2;62
74433;BME280;62865;53.146;23.172;2022-09-09T20:48:32;1026.5;;;13.2;62.1
74433;BME280;62865;53.146;23.172;2022-09-09T20:54:04;1026.5;;;13.2;62.1
74433;BME280;62865;53.146;23.172;2022-09-09T20:59:11;1026.5;;;13.2;62.2
74433;BME280;62865;53.146;23.172;2022-09-09T21:03:46;1026.4;;;13.1;62.5
74433;BME280;62865;53.146;23.172;2022-09-09T21:08:22;1026.4;;;13.2;62.4
74433;BME280;62865;53.146;23.172;2022-09-09T21:13:40;1026.4;;;13.2;62.4
74433;BME280;62865;53.146;23.172;2022-09-09T21:18:50;1026.3;;;13.3;61.8
74433;BME280;62865;53.146;23.172;2022-09-09T21:24:08;1026.3;;;13.3;61.7
74433;BME280;62865;53.146;23.172;2022-09-09T21:28:56;1026.3;;;13.3;62
74433;BME280;62865;53.146;23.172;2022-09-09T21:33:24;1026.3;;;13.3;61.9
74433;BME280;62865;53.146;23.172;2022-09-09T21:38:24;1026.3;;;13.3;62.1
74433;BME280;62865;53.146;23.172;2022-09-09T21:43:58;1026.3;;;13.4;61.8
74433;BME280;62865;53.146;23.172;2022-09-09T21:48:48;1026.2;;;13.4;62
74433;BME280;62865;53.146;23.172;2022-09-09T21:58:54;1026.2;;;13.4;62
74433;BME280;62865;53.146;23.172;2022-09-09T22:03:52;1026.2;;;13.4;62.4
74433;BME280;62865;53.146;23.172;2022-09-09T22:08:44;1026.2;;;13.3;62.7
74433;BME280;62865;53.146;23.172;2022-09-09T22:13:58;1026.1;;;13.3;63
74433;BME280;62865;53.146;23.172;2022-09-09T22:19:08;1026.1;;;13.3;63.2
74433;BME280;62865;53.146;23.172;2022-09-09T22:23:24;1026.1;;;13.4;63
74433;BME280;62865;53.146;23.172;2022-09-09T22:28:42;1026.1;;;13.4;62.8
74433;BME280;62865;53.146;23.172;2022-09-09T22:34:00;1026.1;;;13.4;62.9
74433;BME280;62865;53.146;23.172;2022-09-09T22:38:56;1026.2;;;13.4;63
74433;BME280;62865;53.146;23.172;2022-09-09T22:44:06;1026.2;;;13.5;62.9
74433;BME280;62865;53.146;23.172;2022-09-09T22:48:42;1026.2;;;13.6;62.4
74433;BME280;62865;53.146;23.172;2022-09-09T22:53:40;1026.2;;;13.5;62.6
74433;BME280;62865;53.146;23.172;2022-09-09T22:59:06;1026.1;;;13.3;62.9
74433;BME280;62865;53.146;23.172;2022-09-09T23:03:28;1026.1;;;13.4;62.7
74433;BME280;62865;53.146;23.172;2022-09-09T23:08:42;1026;;;13.3;62.8
74433;BME280;62865;53.146;23.172;2022-09-09T23:13:24;1026;;;13.3;63.1
74433;BME280;62865;53.146;23.172;2022-09-09T23:18:24;1025.9;;;13.4;62.8
74433;BME280;62865;53.146;23.172;2022-09-09T23:23:50;1025.9;;;13.4;62.7
74433;BME280;62865;53.146;23.172;2022-09-09T23:28:48;1025.9;;;13.4;62.7
74433;BME280;62865;53.146;23.172;2022-09-09T23:33:59;1025.8;;;13.2;63.4
74433;BME280;62865;53.146;23.172;2022-09-09T23:39:06;1025.8;;;13.2;63.4
74433;BME280;62865;53.146;23.172;2022-09-09T23:43:52;1025.7;;;13.2;63.9
74433;BME280;62865;53.146;23.172;2022-09-09T23:48:56;1025.7;;;13.2;63.9
74433;BME280;62865;53.146;23.172;2022-09-09T23:54:08;1025.6;;;13.2;64.4
74433;BME280;62865;53.146;23.172;2022-09-09T23:59:08;1025.5;;;13.3;64.1
